Time;durP1;ratioP1;P1;durP2;ratioP2;P2;SDS_P1;SDS_P2;PMS_P1;PMS_P2;Temp;Humidity;BMP_temperature;BMP_pressure;BME280_temperature;BME280_humidity;BME280_pressure;Samples;Min_cycle;Max_cycle;Signal;HPM_P1;HPM_P2
2023/01/16 00:01:56;;;;;;;5.40;2.70;;;;;;;2.39;100.00;99466.06;6178115;23;20011;-87
2023/01/16 00:04:21;;;;;;;5.28;2.65;;;;;;;2.40;100.00;99465.97;6178022;23;20434;-87
2023/01/16 00:06:46;;;;;;;6.97;3.08;;;;;;;2.40;100.00;99452.00;6178023;23;20019;-87
2023/01/16 00:09:12;;;;;;;5.40;2.60;;;;;;;2.41;100.00;99454.56;6178967;23;20109;-87
2023/01/16 00:11:38;;;;;;;5.78;2.78;;;;;;;2.38;100.00;99443.31;6179138;23;20009;-87
2023/01/16 00:14:03;;;;;;;4.55;2.65;;;;;;;2.38;100.00;99444.19;6178668;23;20000;-88
2023/01/16 00:16:29;;;;;;;7.30;3.35;;;;;;;2.34;100.00;99436.47;6177386;23;20001;-87
2023/01/16 00:18:55;;;;;;;4.85;3.10;;;;;;;2.24;100.00;99434.22;6177688;23;20005;-88
2023/01/16 00:21:24;;;;;;;6.60;3.50;;;;;;;2.24;100.00;99439.47;6178368;23;20013;-87
2023/01/16 00:23:49;;;;;;;7.18;3.58;;;;;;;2.21;100.00;99428.22;6178413;23;20060;-86
2023/01/16 00:26:15;;;;;;;9.48;3.35;;;;;;;2.25;100.00;99427.19;6178238;23;20000;-86
2023/01/16 00:28:40;;;;;;;7.43;3.45;;;;;;;2.21;100.00;99420.34;6178577;23;20005;-87
2023/01/16 00:31:06;;;;;;;7.57;3.50;;;;;;;2.22;100.00;99425.56;6177779;23;20227;-88
2023/01/16 00:33:33;;;;;;;7.60;3.15;;;;;;;2.25;100.00;99429.81;6178117;23;20013;-87
2023/01/16 00:35:59;;;;;;;9.25;3.22;;;;;;;2.24;100.00;99425.47;6178528;23;20009;-88
2023/01/16 00:38:25;;;;;;;9.27;3.65;;;;;;;2.17;100.00;99419.63;6152452;23;20016;-87
2023/01/16 00:40:50;;;;;;;7.90;3.30;;;;;;;2.11;100.00;99412.00;6179716;23;20001;-87
2023/01/16 00:43:15;;;;;;;6.15;3.13;;;;;;;2.08;100.00;99413.88;6179110;23;20005;-87
2023/01/16 00:45:41;;;;;;;9.30;2.95;;;;;;;2.09;100.00;99412.94;6178112;23;20016;-88
2023/01/16 00:48:06;;;;;;;8.98;3.15;;;;;;;2.07;100.00;99417.41;6178063;23;20008;-87
2023/01/16 00:50:32;;;;;;;11.57;3.28;;;;;;;2.04;100.00;99401.78;6178280;23;20276;-87
2023/01/16 00:52:57;;;;;;;8.73;3.40;;;;;;;1.96;100.00;99392.44;6177907;23;20001;-88
2023/01/16 00:55:23;;;;;;;7.72;3.38;;;;;;;1.95;100.00;99388.09;6177092;23;20016;-87
2023/01/16 00:57:48;;;;;;;8.57;3.63;;;;;;;1.89;100.00;99385.72;6178649;23;20012;-87
2023/01/16 01:00:14;;;;;;;10.18;3.78;;;;;;;1.88;100.00;99386.66;6178247;23;20004;-88
2023/01/16 01:02:39;;;;;;;7.70;3.25;;;;;;;1.86;100.00;99377.97;6177635;23;20012;-88
2023/01/16 01:05:06;;;;;;;9.35;3.45;;;;;;;1.87;100.00;99379.69;6161548;23;20012;-88
2023/01/16 01:07:31;;;;;;;9.35;3.05;;;;;;;1.79;100.00;99365.16;6203269;23;19996;-87
2023/01/16 01:09:56;;;;;;;8.57;3.35;;;;;;;1.80;100.00;99366.84;6201115;23;20012;-87
2023/01/16 01:12:22;;;;;;;7.32;3.50;;;;;;;1.73;100.00;99361.00;6198520;23;20415;-87
2023/01/16 01:14:47;;;;;;;10.07;3.80;;;;;;;1.75;100.00;99361.78;6196949;23;20016;-87
2023/01/16 01:17:12;;;;;;;7.82;3.20;;;;;;;1.69;100.00;99348.91;6198492;23;20032;-87
2023/01/16 01:19:38;;;;;;;9.23;3.83;;;;;;;1.68;100.00;99357.72;6202775;23;20009;-87
2023/01/16 01:22:03;;;;;;;7.28;3.60;;;;;;;1.64;100.00;99343.84;6156154;23;20498;-88
2023/01/16 01:24:28;;;;;;;9.93;3.50;;;;;;;1.58;100.00;99336.19;6181757;23;20005;-87
2023/01/16 01:26:54;;;;;;;9.20;3.63;;;;;;;1.52;100.00;99328.59;6180628;23;20093;-87
2023/01/16 01:29:19;;;;;;;8.27;3.90;;;;;;;1.55;100.00;99340.72;6181025;23;20005;-87
2023/01/16 01:31:44;;;;;;;8.73;3.67;;;;;;;1.35;100.00;99315.25;6180321;23;20005;-87
2023/01/16 01:34:10;;;;;;;9.52;3.83;;;;;;;1.43;100.00;99321.94;6179967;23;20005;-87
2023/01/16 01:36:35;;;;;;;10.00;3.88;;;;;;;1.38;100.00;99318.63;6177838;23;20565;-87
2023/01/16 01:39:00;;;;;;;11.35;3.85;;;;;;;1.35;100.00;99308.25;6153180;23;20012;-86
2023/01/16 01:41:26;;;;;;;9.30;3.75;;;;;;;1.33;100.00;99309.22;6178730;23;20008;-87
2023/01/16 01:43:53;;;;;;;9.98;3.88;;;;;;;1.33;100.00;99307.44;6178923;23;20005;-87
2023/01/16 01:46:42;;;;;;;10.63;3.95;;;;;;;1.28;100.00;99301.53;6178483;23;20009;-88
2023/01/16 01:49:25;;;;;;;9.93;3.88;;;;;;;1.24;100.00;99295.53;6178971;23;19997;-87
2023/01/16 01:51:54;;;;;;;9.48;3.53;;;;;;;1.30;100.00;99283.13;6177334;23;20366;-87
2023/01/16 01:54:28;;;;;;;9.95;3.60;;;;;;;1.23;100.00;99277.25;6178367;23;20004;-87
2023/01/16 01:57:00;;;;;;;9.27;3.60;;;;;;;1.16;100.00;99263.50;6178538;23;20005;-87
2023/01/16 01:59:34;;;;;;;9.02;3.50;;;;;;;1.20;100.00;99262.50;6177973;23;20382;-87
2023/01/16 02:02:03;;;;;;;7.10;3.30;;;;;;;1.18;100.00;99251.22;6178556;23;20091;-87
2023/01/16 02:04:35;;;;;;;9.95;3.33;;;;;;;1.18;100.00;99253.00;6181145;23;20001;-87
2023/01/16 02:07:07;;;;;;;9.63;3.67;;;;;;;1.19;100.00;99245.06;6182779;23;20035;-87
2023/01/16 02:09:34;;;;;;;8.88;3.17;;;;;;;1.10;100.00;99224.47;6180449;23;20012;-87
2023/01/16 02:12:11;;;;;;;7.65;3.22;;;;;;;1.18;100.00;99234.66;6189519;23;20000;-87
2023/01/16 02:14:39;;;;;;;12.60;3.70;;;;;;;1.19;100.00;99231.13;6195773;23;20028;-88
2023/01/16 02:20:20;;;;;;;9.88;3.40;;;;;;;1.16;100.00;99223.34;6183235;23;20020;-88
2023/01/16 02:23:08;;;;;;;7.25;3.20;;;;;;;1.14;100.00;99210.31;6181790;23;20360;-87
2023/01/16 02:26:25;;;;;;;6.82;2.90;;;;;;;1.12;100.00;99213.91;6178592;23;20013;-87
2023/01/16 02:28:59;;;;;;;9.63;3.10;;;;;;;1.13;100.00;99205.13;6030098;23;20094;-87
2023/01/16 02:31:27;;;;;;;6.35;2.70;;;;;;;1.10;100.00;99198.25;6028522;23;20042;-87
2023/01/16 02:34:20;;;;;;;7.78;2.83;;;;;;;1.10;100.00;99187.78;6035731;23;20041;-87
2023/01/16 02:37:09;;;;;;;12.02;3.03;;;;;;;1.08;100.00;99171.25;6030931;23;20018;-87
2023/01/16 02:40:02;;;;;;;6.15;2.92;;;;;;;1.06;100.00;99167.84;6030209;23;20007;-87
2023/01/16 02:42:43;;;;;;;6.32;3.20;;;;;;;1.03;100.00;99154.00;6030612;23;20086;-87
2023/01/16 02:45:18;;;;;;;9.23;3.47;;;;;;;1.02;100.00;99150.53;6030355;23;20031;-88
2023/01/16 02:47:55;;;;;;;5.25;2.60;;;;;;;0.99;100.00;99142.78;6031664;23;20018;-87
2023/01/16 02:50:38;;;;;;;7.60;2.70;;;;;;;0.98;100.00;99120.13;6031438;23;20438;-87
2023/01/16 02:53:21;;;;;;;7.78;2.83;;;;;;;0.97;100.00;99107.94;6028288;23;20010;-86
2023/01/16 02:56:11;;;;;;;5.18;2.70;;;;;;;0.93;100.00;99101.97;6004414;23;20316;-86
2023/01/16 02:58:45;;;;;;;10.02;3.00;;;;;;;0.94;100.00;99100.22;6028184;23;20964;-87
2023/01/16 03:01:12;;;;;;;8.98;2.83;;;;;;;0.93;100.00;99088.03;6028432;23;20102;-87
2023/01/16 03:03:47;;;;;;;8.40;2.38;;;;;;;0.93;100.00;99088.03;6050219;23;20407;-87
2023/01/16 03:06:30;;;;;;;4.80;2.47;;;;;;;0.87;100.00;99076.00;6177244;23;20009;-86
2023/01/16 03:09:10;;;;;;;6.15;2.67;;;;;;;0.92;100.00;99079.31;6177632;23;20021;-87
2023/01/16 03:11:47;;;;;;;9.82;2.78;;;;;;;0.89;100.00;99068.09;6178403;23;20187;-86
2023/01/16 03:14:19;;;;;;;9.10;2.65;;;;;;;0.94;100.00;99067.00;6176760;23;19997;-87
2023/01/16 03:16:58;;;;;;;9.02;3.00;;;;;;;0.96;100.00;99059.06;6177580;23;20055;-86
2023/01/16 03:19:48;;;;;;;8.30;2.78;;;;;;;0.95;100.00;99050.34;6178020;23;20005;-87
2023/01/16 03:23:00;;;;;;;8.60;3.47;;;;;;;0.94;100.00;99051.28;6177888;23;20017;-86
2023/01/16 03:25:58;;;;;;;11.18;4.35;;;;;;;0.95;100.00;99037.25;6027569;23;20042;-86
2023/01/16 03:28:50;;;;;;;8.45;4.20;;;;;;;0.99;100.00;99028.38;6023594;23;20398;-86
2023/01/16 03:31:44;;;;;;;8.23;4.03;;;;;;;1.04;100.00;99009.00;6025111;23;20075;-86
2023/01/16 03:34:30;;;;;;;9.80;3.78;;;;;;;1.03;100.00;99002.91;6023931;23;20015;-86
2023/01/16 03:37:05;;;;;;;7.72;3.33;;;;;;;1.02;100.00;98982.00;6037852;23;20007;-86
2023/01/16 03:39:36;;;;;;;9.48;3.67;;;;;;;1.07;100.00;98987.91;6049609;23;20107;-86
2023/01/16 03:42:07;;;;;;;8.95;3.20;;;;;;;1.05;100.00;98979.28;6049377;23;19995;-87
2023/01/16 03:44:40;;;;;;;11.18;4.13;;;;;;;0.98;100.00;98963.78;6053874;23;20007;-86
2023/01/16 03:47:12;;;;;;;6.70;3.42;;;;;;;1.03;100.00;98953.13;6055407;23;19999;-86
2023/01/16 03:49:43;;;;;;;7.25;3.22;;;;;;;1.11;100.00;98955.41;6017239;23;20011;-86
2023/01/16 03:52:12;;;;;;;14.10;4.15;;;;;;;1.05;100.00;98932.97;6030853;23;20094;-86
2023/01/16 03:54:56;;;;;;;6.28;3.40;;;;;;;1.14;100.00;98932.56;6032112;23;20039;-86
2023/01/16 03:57:24;;;;;;;;;;;;;;;1.07;100.00;98925.03;6032662;23;20514;-86
2023/01/16 03:59:51;;;;;;;8.77;3.53;;;;;;;1.09;100.00;98907.50;6048013;23;19906;-86
2023/01/16 04:02:30;;;;;;;8.55;3.53;;;;;;;1.10;100.00;98899.56;6180240;23;20001;-86
2023/01/16 04:05:03;;;;;;;8.73;3.67;;;;;;;1.12;100.00;98891.63;6177461;23;20001;-86
2023/01/16 04:07:37;;;;;;;10.18;3.70;;;;;;;1.16;100.00;98887.94;6178302;23;20005;-86
2023/01/16 04:10:25;;;;;;;13.95;4.13;;;;;;;1.18;100.00;98886.97;6178428;23;20032;-86
2023/01/16 04:12:58;;;;;;;7.70;3.70;;;;;;;1.22;100.00;98874.59;6177631;23;20005;-86
2023/01/16 04:15:28;;;;;;;9.00;3.28;;;;;;;1.18;100.00;98860.75;6176348;23;20043;-87
2023/01/16 04:17:54;;;;;;;7.78;3.60;;;;;;;1.25;100.00;98861.31;6177652;23;20016;-86
2023/01/16 04:20:20;;;;;;;6.18;3.45;;;;;;;1.26;100.00;98852.56;6176941;23;20016;-86
2023/01/16 04:22:49;;;;;;;9.20;3.40;;;;;;;1.27;100.00;98843.78;6177079;23;20457;-86
2023/01/16 04:25:17;;;;;;;10.15;3.53;;;;;;;1.28;100.00;98836.75;6176195;23;20457;-86
2023/01/16 04:27:42;;;;;;;7.07;3.38;;;;;;;1.31;100.00;98834.84;6176590;23;20012;-86
2023/01/16 04:30:09;;;;;;;8.25;3.28;;;;;;;1.29;100.00;98820.09;6178431;23;20000;-86
2023/01/16 04:32:34;;;;;;;8.13;3.63;;;;;;;1.34;100.00;98811.13;6178709;23;20058;-86
2023/01/16 04:34:59;;;;;;;10.13;3.20;;;;;;;1.37;100.00;98799.66;6177945;23;20016;-86
2023/01/16 04:37:24;;;;;;;8.95;3.30;;;;;;;1.41;100.00;98786.31;6182635;23;20012;-85
2023/01/16 04:39:50;;;;;;;8.25;3.10;;;;;;;1.42;100.00;98774.06;6186602;23;20037;-86
2023/01/16 04:42:15;;;;;;;6.07;2.95;;;;;;;1.42;100.00;98761.84;6183712;23;20015;-86
2023/01/16 04:44:41;;;;;;;6.43;3.20;;;;;;;1.53;100.00;98760.47;6189628;23;20020;-86
2023/01/16 04:47:07;;;;;;;6.43;3.28;;;;;;;1.54;100.00;98749.03;6194585;23;20016;-86
2023/01/16 04:49:32;;;;;;;5.85;2.95;;;;;;;1.51;100.00;98731.72;6195178;23;20056;-87
2023/01/16 04:51:58;;;;;;;6.82;3.20;;;;;;;1.56;100.00;98732.34;6190695;23;20009;-87
2023/01/16 04:54:23;;;;;;;9.98;3.72;;;;;;;1.56;100.00;98710.50;6176842;23;20001;-86
2023/01/16 04:56:49;;;;;;;8.52;3.47;;;;;;;1.61;100.00;98711.13;6179108;23;20016;-86
2023/01/16 04:59:15;;;;;;;6.38;2.95;;;;;;;1.65;100.00;98694.31;6178492;23;20571;-86
2023/01/16 05:01:41;;;;;;;7.97;3.20;;;;;;;1.71;100.00;98686.16;6180594;23;20041;-87
2023/01/16 05:04:08;;;;;;;6.75;3.28;;;;;;;1.75;100.00;98685.91;6178145;23;20005;-86
2023/01/16 05:06:34;;;;;;;7.93;3.10;;;;;;;1.79;100.00;98672.66;6179016;23;20138;-86
2023/01/16 05:09:00;;;;;;;7.32;3.10;;;;;;;1.77;100.00;98657.00;6178476;23;20089;-86
2023/01/16 05:11:25;;;;;;;10.02;2.95;;;;;;;1.86;100.00;98664.41;6177907;23;20005;-86
2023/01/16 05:13:51;;;;;;;7.10;3.10;;;;;;;1.86;100.00;98648.66;6177575;23;20012;-86
2023/01/16 05:16:16;;;;;;;9.32;3.80;;;;;;;1.94;100.00;98646.50;6178362;23;20017;-86
2023/01/16 05:18:41;;;;;;;9.10;3.13;;;;;;;1.97;100.00;98646.38;6177129;23;20497;-87
2023/01/16 05:21:07;;;;;;;9.95;3.28;;;;;;;2.00;100.00;98633.06;6177882;23;20041;-86
2023/01/16 05:23:37;;;;;;;6.82;3.13;;;;;;;2.06;100.00;98631.09;6177319;23;20028;-86
2023/01/16 05:26:03;;;;;;;5.30;2.53;;;;;;;1.99;100.00;98607.75;6176953;23;20009;-86
2023/01/16 05:28:29;;;;;;;11.75;2.90;;;;;;;2.10;100.00;98604.59;6177833;23;20052;-86
2023/01/16 05:30:54;;;;;;;6.75;2.65;;;;;;;2.07;100.00;98585.53;6178063;23;20027;-85
2023/01/16 05:33:20;;;;;;;6.88;3.28;;;;;;;2.11;100.00;98587.91;6175915;23;20005;-86
2023/01/16 05:35:46;;;;;;;6.05;2.50;;;;;;;2.13;100.00;98579.94;6177741;23;20009;-86
2023/01/16 05:38:12;;;;;;;6.68;2.72;;;;;;;2.12;100.00;98571.25;6177706;23;20088;-86
2023/01/16 05:40:38;;;;;;;9.77;3.17;;;;;;;2.13;100.00;98557.22;6176617;23;20086;-85
2023/01/16 05:43:03;;;;;;;6.75;3.00;;;;;;;2.13;100.00;98549.34;6176746;23;20009;-86
2023/01/16 05:45:29;;;;;;;5.88;2.92;;;;;;;2.11;100.00;98539.84;6176896;23;20005;-86
2023/01/16 05:47:54;;;;;;;6.15;2.80;;;;;;;2.18;100.00;98533.34;6150746;23;20043;-85
2023/01/16 05:50:19;;;;;;;4.22;2.30;;;;;;;2.19;100.00;98516.66;6177273;23;20015;-86
2023/01/16 05:52:45;;;;;;;6.97;2.50;;;;;;;2.19;100.00;98512.25;6176982;23;20005;-86
2023/01/16 05:55:10;;;;;;;6.90;2.50;;;;;;;2.22;100.00;98504.22;6176749;23;20013;-85
2023/01/16 05:57:35;;;;;;;4.85;2.33;;;;;;;2.23;100.00;98497.19;6178418;23;20005;-85
2023/01/16 06:00:01;;;;;;;4.32;2.40;;;;;;;2.22;100.00;98493.72;6179102;23;20060;-86
2023/01/16 06:02:26;;;;;;;8.60;2.55;;;;;;;2.21;100.00;98483.28;6196918;23;20012;-86
2023/01/16 06:04:52;;;;;;;5.32;2.33;;;;;;;2.28;100.00;98491.69;6174746;23;20009;-86
2023/01/16 06:07:17;;;;;;;5.63;2.42;;;;;;;2.21;100.00;98467.53;6199677;23;20005;-85
2023/01/16 06:09:43;;;;;;;8.05;3.70;;;;;;;2.28;100.00;98474.16;6173542;23;20012;-87
2023/01/16 06:12:14;;;;;;;6.78;3.95;;;;;;;2.32;100.00;98477.47;6194753;23;20020;-86
2023/01/16 06:14:39;;;;;;;5.35;2.90;;;;;;;2.32;100.00;98466.97;6184604;23;20028;-86
2023/01/16 06:17:05;;;;;;;9.82;3.65;;;;;;;2.31;100.00;98463.50;6156167;23;19997;-86
2023/01/16 06:19:30;;;;;;;7.22;2.85;;;;;;;2.30;100.00;98453.94;6179539;23;20005;-86
2023/01/16 06:21:55;;;;;;;4.13;2.60;;;;;;;2.29;100.00;98460.09;6179668;23;20013;-86
2023/01/16 06:24:20;;;;;;;8.07;2.95;;;;;;;2.28;100.00;98447.91;6178917;23;20013;-85
2023/01/16 06:26:46;;;;;;;7.18;2.90;;;;;;;2.20;100.00;98429.97;6180214;23;20032;-86
2023/01/16 06:29:11;;;;;;;8.90;4.03;;;;;;;2.26;100.00;98426.16;6179208;23;20033;-85
2023/01/16 06:31:36;;;;;;;8.65;3.22;;;;;;;2.23;100.00;98426.31;6178935;23;20147;-85
2023/01/16 06:34:02;;;;;;;5.70;2.50;;;;;;;2.20;100.00;98405.50;6177914;23;20033;-85
2023/01/16 06:36:27;;;;;;;10.10;3.72;;;;;;;2.19;100.00;98407.28;6174956;23;20011;-84
2023/01/16 06:38:53;;;;;;;9.02;3.53;;;;;;;2.16;100.00;98398.72;6178307;23;20009;-84
2023/01/16 06:41:18;;;;;;;6.43;2.70;;;;;;;2.16;100.00;98398.72;6150092;23;20055;-84
2023/01/16 06:43:43;;;;;;;7.63;2.72;;;;;;;2.15;100.00;98391.78;6175749;23;20016;-83
2023/01/16 06:46:09;;;;;;;6.30;2.60;;;;;;;2.13;100.00;98368.28;6176160;23;20005;-84
2023/01/16 06:48:34;;;;;;;5.95;2.65;;;;;;;2.14;100.00;98358.63;6177555;23;20569;-83
2023/01/16 06:51:00;;;;;;;6.85;2.70;;;;;;;2.14;100.00;98348.13;6175827;23;20012;-82
2023/01/16 06:53:26;;;;;;;7.65;2.75;;;;;;;2.10;100.00;98329.06;6174189;23;20005;-82
2023/01/16 06:55:51;;;;;;;5.32;3.20;;;;;;;2.14;100.00;98322.72;6175531;23;20434;-83
2023/01/16 06:58:16;;;;;;;9.80;2.70;;;;;;;2.00;100.00;98292.00;6176710;23;20083;-83
2023/01/16 07:00:41;;;;;;;9.32;2.45;;;;;;;2.12;100.00;98307.97;6174000;23;20012;-84
2023/01/16 07:03:08;;;;;;;6.72;2.80;;;;;;;2.12;100.00;98298.31;6174436;23;20130;-83
2023/01/16 07:05:33;;;;;;;4.72;2.30;;;;;;;2.13;100.00;98284.31;6176497;23;20005;-86
2023/01/16 07:07:59;;;;;;;5.57;2.50;;;;;;;2.14;100.00;98274.66;6176197;23;20012;-85
2023/01/16 07:10:25;;;;;;;5.20;2.50;;;;;;;2.13;100.00;98258.06;6177142;23;20001;-84
2023/01/16 07:12:54;;;;;;;5.78;2.65;;;;;;;2.16;100.00;98260.47;6178788;23;20026;-83
2023/01/16 07:23:41;;;;;;;5.70;2.00;;;;;;;2.09;100.00;98214.56;6174497;23;19931;-84
2023/01/16 07:26:08;;;;;;;7.15;2.80;;;;;;;2.19;100.00;98220.09;6176184;23;20414;-84
2023/01/16 07:28:34;;;;;;;5.60;2.50;;;;;;;2.16;100.00;98205.38;6174891;23;20005;-84
2023/01/16 07:31:03;;;;;;;5.40;2.90;;;;;;;2.12;100.00;98188.13;6150326;23;20044;-84
2023/01/16 07:33:29;;;;;;;5.90;2.60;;;;;;;2.16;100.00;98194.88;6175393;23;20021;-84
2023/01/16 07:35:54;;;;;;;5.22;2.42;;;;;;;2.23;100.00;98192.75;6148662;23;20020;-85
2023/01/16 07:38:19;;;;;;;4.03;2.30;;;;;;;2.23;100.00;98185.72;6147632;23;20004;-84
2023/01/16 07:40:44;;;;;;;8.68;2.70;;;;;;;2.20;100.00;98175.41;6175216;23;20080;-84
2023/01/16 07:43:10;;;;;;;4.72;2.83;;;;;;;2.20;100.00;98169.31;6172844;23;20088;-84
2023/01/16 07:45:35;;;;;;;6.60;2.90;;;;;;;2.26;100.00;98166.34;6173996;23;20005;-84
2023/01/16 07:48:00;;;;;;;5.97;2.45;;;;;;;2.24;100.00;98161.16;6175568;23;20036;-83
2023/01/16 07:50:26;;;;;;;5.50;2.30;;;;;;;2.23;100.00;98156.00;6175361;23;20097;-84
2023/01/16 07:52:52;;;;;;;5.85;2.45;;;;;;;2.26;100.00;98155.84;6173314;23;20499;-85
2023/01/16 07:55:17;;;;;;;7.82;2.90;;;;;;;2.20;100.00;98143.06;6175826;23;20327;-85
2023/01/16 07:57:42;;;;;;;5.97;2.67;;;;;;;2.25;100.00;98138.38;6174129;23;20085;-84
2023/01/16 08:00:10;;;;;;;8.10;2.72;;;;;;;2.24;100.00;98128.81;6175378;23;20105;-84
2023/01/16 08:02:35;;;;;;;3.95;2.70;;;;;;;2.29;100.00;98128.53;6173917;23;20035;-85
2023/01/16 08:05:01;;;;;;;3.88;2.25;;;;;;;2.22;100.00;98101.84;6175227;23;20005;-85
2023/01/16 08:07:26;;;;;;;7.88;2.72;;;;;;;2.29;100.00;98103.13;6177356;23;20008;-84
2023/01/16 08:09:51;;;;;;;7.25;3.30;;;;;;;2.30;100.00;98090.84;6176945;23;20020;-85
2023/01/16 08:12:17;;;;;;;4.57;2.58;;;;;;;2.32;100.00;98086.38;6148456;23;20017;-85
2023/01/16 08:14:42;;;;;;;5.32;2.80;;;;;;;2.27;100.00;98070.91;6176246;23;20028;-85
2023/01/16 08:17:07;;;;;;;6.13;2.58;;;;;;;2.29;100.00;98079.50;6177591;23;20051;-84
2023/01/16 08:19:33;;;;;;;4.05;2.50;;;;;;;2.33;100.00;98075.75;6149463;23;20009;-85
2023/01/16 08:21:58;;;;;;;3.47;2.40;;;;;;;2.32;100.00;98063.59;6195419;23;20005;-84
2023/01/16 08:24:25;;;;;;;6.78;3.47;;;;;;;2.35;100.00;98062.56;6202676;23;20024;-85
2023/01/16 08:26:51;;;;;;;5.80;3.10;;;;;;;2.37;100.00;98063.31;6202075;23;20074;-87
2023/01/16 08:29:16;;;;;;;7.00;3.38;;;;;;;2.31;100.00;98042.69;6176885;23;19996;-87
2023/01/16 08:31:41;;;;;;;8.27;3.95;;;;;;;2.34;100.00;98038.09;6201669;23;20098;-86
2023/01/16 08:34:07;;;;;;;7.03;3.90;;;;;;;2.40;100.00;98039.50;6199497;23;20028;-86
2023/01/16 08:36:32;;;;;;;8.20;4.57;;;;;;;2.38;100.00;98033.47;6181850;23;20126;-86
2023/01/16 08:38:58;;;;;;;6.43;3.35;;;;;;;2.34;100.00;98016.22;6179071;23;20005;-88
2023/01/16 08:52:30;;;;;;;7.50;4.72;;;;;;;2.49;100.00;98021.38;6174823;23;20044;-84
2023/01/16 08:54:56;;;;;;;5.82;3.42;;;;;;;2.50;100.00;98024.84;6173921;23;20072;-84
2023/01/16 08:57:22;;;;;;;6.57;3.42;;;;;;;2.47;100.00;98019.81;6147709;23;20669;-83
2023/01/16 08:59:47;;;;;;;5.40;3.00;;;;;;;2.51;100.00;98018.66;6172575;23;20032;-83
2023/01/16 09:02:14;;;;;;;5.28;2.92;;;;;;;2.43;100.00;98008.66;6174550;23;20005;-84
2023/01/16 09:04:39;;;;;;;4.22;2.40;;;;;;;2.51;100.00;98018.66;6173568;23;20005;-84
2023/01/16 09:07:05;;;;;;;3.50;2.60;;;;;;;2.47;100.00;98004.06;6174906;23;20016;-83
2023/01/16 09:09:30;;;;;;;3.85;2.20;;;;;;;2.48;100.00;98001.31;6173712;23;20012;-83
2023/01/16 09:14:40;;;;;;;2.53;2.30;;;;;;;2.49;100.00;97992.50;6173461;23;20504;-84
2023/01/16 09:17:06;;;;;;;2.78;2.40;;;;;;;2.50;100.00;97995.97;6172838;23;20005;-84
2023/01/16 09:19:32;;;;;;;2.53;2.20;;;;;;;2.49;100.00;97995.13;6174106;23;20083;-84
2023/01/16 09:21:57;;;;;;;3.10;2.08;;;;;;;2.48;100.00;97988.19;6102384;23;1053673;-85
2023/01/16 09:24:22;;;;;;;2.40;2.15;;;;;;;2.43;100.00;97981.56;6174158;23;20437;-85
2023/01/16 09:26:48;;;;;;;1.90;1.80;;;;;;;2.42;100.00;97983.31;6179661;23;20012;-85
2023/01/16 09:29:13;;;;;;;2.80;2.10;;;;;;;2.52;100.00;97993.25;6174251;23;20064;-85
2023/01/16 09:31:38;;;;;;;2.20;2.00;;;;;;;2.53;100.00;97987.91;6178437;23;20013;-85
2023/01/16 09:34:04;;;;;;;3.47;2.30;;;;;;;2.46;100.00;97979.56;6178299;23;20005;-85
2023/01/16 09:36:29;;;;;;;2.83;2.17;;;;;;;2.53;100.00;97987.06;6175088;23;20039;-83
2023/01/16 09:38:54;;;;;;;3.65;2.00;;;;;;;2.50;100.00;97982.84;6178945;23;20063;-82
2023/01/16 09:44:15;;;;;;;1.75;1.60;;;;;;;2.57;100.00;97975.41;6178215;23;20513;-84
2023/01/16 09:46:51;;;;;;;1.90;1.80;;;;;;;2.60;100.00;97975.22;6174766;23;20009;-83
2023/01/16 09:49:29;;;;;;;2.38;1.50;;;;;;;2.61;100.00;97974.28;6151651;23;20491;-85
2023/01/16 10:00:24;;;;;;;1.50;1.40;;;;;;;2.70;100.00;97950.88;6180384;23;20075;-85
2023/01/16 10:02:50;;;;;;;1.70;1.60;;;;;;;2.72;100.00;97945.56;6181492;23;20028;-85
2023/01/16 10:05:17;;;;;;;2.78;1.52;;;;;;;2.69;100.00;97932.63;6181012;23;20001;-85
2023/01/16 10:07:51;;;;;;;4.57;1.70;;;;;;;2.76;100.00;97941.78;6178828;23;20009;-84
2023/01/16 10:10:37;;;;;;;2.83;1.60;;;;;;;2.78;100.00;97931.16;6179317;23;20001;-85
2023/01/16 10:13:32;;;;;;;1.70;1.60;;;;;;;2.94;100.00;97927.44;6176646;23;20005;-85
2023/01/16 10:16:12;;;;;;;2.90;1.92;;;;;;;3.08;100.00;97909.91;6026868;23;20244;-85
2023/01/16 10:18:52;;;;;;;2.13;1.90;;;;;;;3.33;100.00;97911.72;6027044;23;20038;-86
2023/01/16 10:21:49;;;;;;;3.17;1.92;;;;;;;3.44;100.00;97886.38;6027091;23;20015;-85
2023/01/16 10:24:41;;;;;;;2.60;1.88;;;;;;;3.70;100.00;97897.69;6026926;23;20055;-86
2023/01/16 10:27:27;;;;;;;2.40;2.20;;;;;;;3.64;100.00;97884.16;5978350;23;20015;-86
2023/01/16 10:30:03;;;;;;;2.10;1.50;;;;;;;3.74;100.00;97893.91;6028329;23;20018;-86
2023/01/16 10:32:34;;;;;;;3.10;2.80;;;;;;;3.67;100.00;97886.56;6027846;23;20102;-86
2023/01/16 10:35:05;;;;;;;2.90;2.60;;;;;;;3.58;100.00;97867.00;6029753;23;20050;-86
2023/01/16 10:37:34;;;;;;;4.78;3.47;;;;;;;3.60;100.00;97882.69;6041709;23;20038;-85
2023/01/16 10:40:09;;;;;;;4.28;3.08;;;;;;;3.43;100.00;97866.28;6057912;23;20023;-85
2023/01/16 10:50:56;;;;;;;4.50;2.42;;;;;;;3.30;100.00;97839.13;6048827;23;20110;-86
2023/01/16 10:53:22;;;;;;;4.20;2.85;;;;;;;3.35;100.00;97847.56;6172372;23;20449;-86
2023/01/16 10:55:51;;;;;;;1.50;1.40;;;;;;;3.30;100.00;97839.13;6181934;23;20037;-86
2023/01/16 10:58:25;;;;;;;3.85;2.50;;;;;;;3.27;100.00;97834.13;6181660;23;20075;-87
2023/01/16 11:00:55;;;;;;;1.90;1.80;;;;;;;3.17;100.00;97818.13;6180503;23;20000;-86
2023/01/16 11:03:45;;;;;;;3.50;3.20;;;;;;;3.20;100.00;97824.97;6179994;23;20024;-86
2023/01/16 11:06:22;;;;;;;2.08;1.73;;;;;;;3.18;100.00;97819.81;6153479;23;20013;-86
2023/01/16 11:08:59;;;;;;;1.70;1.55;;;;;;;3.19;100.00;97816.25;6180507;23;20039;-85
2023/01/16 11:20:20;;;;;;;2.88;2.67;;;;;;;3.29;100.00;97786.69;6178312;23;20433;-86
2023/01/16 11:22:59;;;;;;;3.35;2.97;;;;;;;3.29;100.00;97777.00;6178430;23;20005;-86
2023/01/16 11:25:27;;;;;;;3.67;2.95;;;;;;;3.35;100.00;97773.13;6176526;23;20001;-87
2023/01/16 11:27:56;;;;;;;1.90;1.80;;;;;;;3.35;100.00;97765.25;6175899;23;20005;-86
2023/01/16 11:30:28;;;;;;;2.67;1.67;;;;;;;3.45;100.00;97761.84;6176852;23;20001;-88
2023/01/16 11:32:56;;;;;;;1.90;1.50;;;;;;;3.45;100.00;97740.81;6175618;23;20017;-84
2023/01/16 11:35:31;;;;;;;1.70;1.60;;;;;;;3.44;100.00;97733.88;6176234;23;20090;-86
2023/01/16 11:37:57;;;;;;;1.63;1.52;;;;;;;3.55;100.00;97740.13;6176785;23;20013;-86
2023/01/16 11:40:25;;;;;;;1.70;1.60;;;;;;;3.57;100.00;97735.63;6177562;23;20028;-86
2023/01/16 11:48:27;;;;;;;1.83;1.58;;;;;;;3.71;100.00;97717.88;6186802;23;20405;-86
2023/01/16 11:50:57;;;;;;;2.88;1.70;;;;;;;3.64;100.00;97702.69;6202475;23;20029;-87
2023/01/16 11:53:29;;;;;;;1.60;1.50;;;;;;;3.68;100.00;97704.13;6202647;23;20001;-87
2023/01/16 11:56:04;;;;;;;2.20;1.50;;;;;;;3.68;100.00;97704.13;6195398;23;20009;-87
2023/01/16 11:58:48;;;;;;;1.35;1.30;;;;;;;3.62;100.00;97700.16;6178487;23;20009;-87
2023/01/16 12:01:25;;;;;;;1.50;1.40;;;;;;;3.63;100.00;97686.03;6179140;23;20005;-86
2023/01/16 12:04:05;;;;;;;1.63;1.52;;;;;;;3.63;100.00;97687.84;6180183;23;20009;-87
2023/01/16 12:06:53;;;;;;;1.55;1.45;;;;;;;3.65;100.00;97671.00;6180131;23;20431;-87
2023/01/16 12:09:35;;;;;;;1.58;1.48;;;;;;;3.60;100.00;97648.63;6182385;23;20017;-88
2023/01/16 12:15:07;;;;;;;1.65;1.55;;;;;;;3.79;100.00;97658.63;6179528;23;20032;-88
2023/01/16 12:17:55;;;;;;;1.67;1.40;;;;;;;3.89;100.00;97660.47;6179674;23;20054;-88
2023/01/16 12:20:27;;;;;;;1.55;1.45;;;;;;;3.93;100.00;97653.16;6179595;23;20599;-88
2023/01/16 12:23:19;;;;;;;1.50;1.40;;;;;;;3.93;100.00;97654.03;6178827;23;20459;-87
2023/01/16 12:26:09;;;;;;;3.22;1.52;;;;;;;3.95;100.00;97643.38;6179527;23;20423;-89
2023/01/16 12:28:52;;;;;;;1.50;1.40;;;;;;;3.93;100.00;97637.38;6180893;23;20092;-87
2023/01/16 12:31:37;;;;;;;3.47;1.58;;;;;;;3.89;100.00;97638.59;6177044;23;20438;-87
2023/01/16 12:34:32;;;;;;;2.70;1.70;;;;;;;3.86;100.00;97637.00;6179287;23;20009;-87
2023/01/16 12:37:32;;;;;;;2.97;1.52;;;;;;;3.83;100.00;97629.34;6150245;23;20048;-87
2023/01/16 12:40:01;;;;;;;2.00;1.60;;;;;;;3.83;100.00;97621.44;6152641;23;20089;-89
2023/01/16 12:45:48;;;;;;;2.70;1.67;;;;;;;3.82;100.00;97625.03;6176892;23;20016;-86
2023/01/16 12:48:32;;;;;;;3.20;2.17;;;;;;;3.86;100.00;97609.88;6152985;23;20348;-86
2023/01/16 12:51:25;;;;;;;1.75;1.55;;;;;;;3.84;100.00;97591.53;6177586;23;20008;-87
2023/01/16 12:54:02;;;;;;;1.42;1.33;;;;;;;3.97;100.00;97594.09;6178772;23;20001;-87
2023/01/16 12:56:27;;;;;;;1.60;1.50;;;;;;;4.04;100.00;97589.22;6204497;23;19989;-86